Terminal Aerodrome Forecast
Issued by NWS

Home | Current Version | Previous Version | Text Only | Print | Product List | Glossary On
Versions: 1 2 3 4 5 6 7 8 9 10 11 12 13 14 15 16
000
FTUS46 KMFR 162300
TAFOTH
TAF
KOTH 162320Z 1700/1724 30010KT P6SM OVC100
     FM170300 VRB03KT P6SM OVC070
     FM171500 15007KT P6SM -RA OVC040
     FM171800 16011KT 5SM -RA BR OVC035=

USA.gov is the U.S. government's official web portal to all federal, state and local government web resources and services.